Terminal Aerodrome Forecast
Issued by NWS

Home | Current Version | Previous Version | Text Only | Print | Product List | Glossary On
Versions: 1 2 3 4 5 6 7 8 9 10 11 12 13 14 15 16 17 18 19 20
966
FTUS46 KMTR 280711 AAA
TAFMRY
TAF AMD
KMRY 280711Z 2807/2906 23006KT P6SM SKC
     FM281000 26007KT P6SM SCT012
      TEMPO 2811/2815 BKN010
     FM281900 28014KT P6SM FEW015
     FM290300 29010KT P6SM FEW010=

USA.gov is the U.S. government's official web portal to all federal, state and local government web resources and services.